createdAt,value
2022-08-05T00:01:28.059Z,8.60
2022-08-05T00:06:33.201Z,8.80
2022-08-05T00:11:49.068Z,9.30
2022-08-05T00:16:58.761Z,8.80
2022-08-05T00:22:04.902Z,8.27
2022-08-05T00:27:10.290Z,9.10
2022-08-05T00:32:17.583Z,9.05
2022-08-05T00:37:20.214Z,8.70
2022-08-05T00:42:32.147Z,8.32
2022-08-05T00:47:56.926Z,8.07
2022-08-05T00:52:58.803Z,9.20
2022-08-05T00:58:01.698Z,8.60
2022-08-05T01:03:08.215Z,9.80
2022-08-05T01:08:40.997Z,7.82
2022-08-05T01:13:57.403Z,8.52
2022-08-05T01:19:12.173Z,8.82
2022-08-05T01:24:45.089Z,8.27
2022-08-05T01:29:52.695Z,9.52
2022-08-05T01:35:00.299Z,9.07
2022-08-05T01:40:05.854Z,8.40
2022-08-05T01:45:10.348Z,8.15
2022-08-05T01:50:17.361Z,7.75
2022-08-05T01:55:23.493Z,7.95
2022-08-05T02:00:30.447Z,7.70
2022-08-05T02:05:36.735Z,7.40
2022-08-05T02:10:44.709Z,6.97
2022-08-05T02:15:51.023Z,7.15
2022-08-05T02:20:58.969Z,7.43
2022-08-05T02:26:06.268Z,6.72
2022-08-05T02:31:20.944Z,6.88
2022-08-05T02:36:27.605Z,6.95
2022-08-05T02:41:42.903Z,6.60
2022-08-05T02:47:00.677Z,6.82
2022-08-05T02:52:06.312Z,6.45
2022-08-05T02:58:09.164Z,6.50
2022-08-05T03:02:39.833Z,6.28
2022-08-05T03:08:00.912Z,6.55
2022-08-05T03:13:12.479Z,5.70
2022-08-05T03:18:24.657Z,6.30
2022-08-05T03:23:33.965Z,5.93
2022-08-05T03:28:38.117Z,6.75
2022-08-05T03:33:49.331Z,6.40
2022-08-05T03:38:55.298Z,7.03
2022-08-05T03:44:09.293Z,7.47
2022-08-05T03:49:15.040Z,8.88
2022-08-05T03:55:52.517Z,7.65
2022-08-05T03:59:54.875Z,8.80
2022-08-05T04:04:59.319Z,8.95
2022-08-05T04:10:03.097Z,7.95
2022-08-05T04:15:07.314Z,8.02
2022-08-05T04:20:19.925Z,8.55
2022-08-05T04:25:38.335Z,7.90
2022-08-05T04:30:46.748Z,8.13
2022-08-05T04:36:15.912Z,7.72
2022-08-05T04:41:13.962Z,7.57
2022-08-05T04:46:28.248Z,7.40
2022-08-05T04:51:32.187Z,7.50
2022-08-05T04:56:37.250Z,7.35
2022-08-05T05:02:06.686Z,7.15
2022-08-05T05:07:03.463Z,7.65
2022-08-05T05:12:06.404Z,7.43
2022-08-05T05:17:10.302Z,7.70
2022-08-05T05:22:23.739Z,7.32
2022-08-05T05:27:44.166Z,7.10
2022-08-05T05:32:51.454Z,7.20
2022-08-05T05:38:01.474Z,6.85
2022-08-05T05:43:05.141Z,6.32
2022-08-05T05:48:11.891Z,6.70
2022-08-05T05:53:21.558Z,6.20
2022-08-05T05:58:30.387Z,6.05
2022-08-05T06:03:53.853Z,6.38
2022-08-05T06:08:59.602Z,5.40
2022-08-05T06:14:02.544Z,5.97
2022-08-05T06:19:07.298Z,5.45
2022-08-05T06:24:12.724Z,6.35
2022-08-05T06:29:42.982Z,7.30
2022-08-05T06:34:40.343Z,7.50
2022-08-05T06:39:44.927Z,15.00
2022-08-05T06:44:49.191Z,9.73
2022-08-05T06:50:01.931Z,6.55
2022-08-05T06:55:09.209Z,6.05
2022-08-05T07:00:12.870Z,5.63
2022-08-05T07:05:18.847Z,6.15
2022-08-05T07:10:30.478Z,6.20
2022-08-05T07:16:01.057Z,7.80
2022-08-05T07:21:07.378Z,6.72
2022-08-05T07:26:13.379Z,7.50
2022-08-05T07:31:17.028Z,5.75
2022-08-05T07:36:21.753Z,5.80
2022-08-05T07:42:14.526Z,5.97
2022-08-05T07:46:49.573Z,5.88
2022-08-05T07:51:53.633Z,5.55
2022-08-05T07:57:14.642Z,5.57
2022-08-05T08:02:26.644Z,5.68
2022-08-05T08:07:39.567Z,5.30
2022-08-05T08:12:58.523Z,5.97
2022-08-05T08:18:08.171Z,5.30
2022-08-05T08:24:03.012Z,5.07
2022-08-05T08:28:59.503Z,5.60
2022-08-05T08:34:02.389Z,5.57
2022-08-05T08:39:15.753Z,5.63
2022-08-05T08:45:25.130Z,5.22
2022-08-05T08:50:23.391Z,5.25
2022-08-05T08:55:13.244Z,5.32
2022-08-05T09:00:19.277Z,5.00
2022-08-05T09:05:38.482Z,5.22
2022-08-05T09:10:46.848Z,5.45
2022-08-05T09:15:50.983Z,4.97
2022-08-05T09:20:54.162Z,5.28
2022-08-05T09:26:09.199Z,4.90
2022-08-05T09:32:38.860Z,5.32
2022-08-05T09:36:54.132Z,4.35
2022-08-05T09:41:59.826Z,5.00
2022-08-05T09:47:12.679Z,5.00
2022-08-05T09:52:21.803Z,5.00
2022-08-05T09:57:39.530Z,4.63
2022-08-05T10:02:45.153Z,4.85
2022-08-05T10:08:35.880Z,4.82
2022-08-05T10:13:31.705Z,5.13
2022-08-05T10:18:49.970Z,4.53
2022-08-05T10:23:58.995Z,5.00
2022-08-05T10:29:03.627Z,4.47
2022-08-05T10:34:08.242Z,4.88
2022-08-05T10:39:24.530Z,4.57
2022-08-05T10:44:39.039Z,4.47
2022-08-05T10:50:31.722Z,4.25
2022-08-05T11:01:28.062Z,4.85
2022-08-05T11:07:06.121Z,4.18
2022-08-05T11:12:45.387Z,4.57
2022-08-05T11:17:58.883Z,4.80
2022-08-05T11:24:04.472Z,4.53
2022-08-05T11:29:02.441Z,4.32
2022-08-05T11:34:17.208Z,4.20
2022-08-05T11:39:48.958Z,4.80
2022-08-05T11:44:54.634Z,4.45
2022-08-05T11:50:00.154Z,3.92
2022-08-05T11:55:10.520Z,4.43
2022-08-05T12:00:28.717Z,4.38
2022-08-05T12:05:36.468Z,4.68
2022-08-05T12:10:46.331Z,4.50
2022-08-05T12:15:49.775Z,4.78
2022-08-05T12:20:53.107Z,4.30
2022-08-05T12:25:57.295Z,4.10
2022-08-05T12:31:02.224Z,4.47
2022-08-05T12:36:07.151Z,3.80
2022-08-05T12:41:16.178Z,4.07
2022-08-05T12:46:28.933Z,4.55
2022-08-05T12:52:12.628Z,5.63
2022-08-05T12:57:09.483Z,4.32
2022-08-05T13:02:15.672Z,4.47
2022-08-05T13:07:55.021Z,4.75
2022-08-05T13:12:51.295Z,12.65
2022-08-05T13:18:00.827Z,9.65
2022-08-05T13:23:07.402Z,4.97
2022-08-05T13:28:12.005Z,4.80
2022-08-05T13:34:24.869Z,5.57
2022-08-05T13:38:42.221Z,4.80
2022-08-05T13:43:55.251Z,4.50
2022-08-05T13:49:00.886Z,4.72
2022-08-05T13:54:12.397Z,4.65
2022-08-05T13:59:19.433Z,5.05
2022-08-05T14:04:41.230Z,4.90
2022-08-05T14:09:46.498Z,4.97
2022-08-05T14:14:51.402Z,5.18
2022-08-05T14:19:56.075Z,5.15
2022-08-05T14:25:00.333Z,6.00
2022-08-05T14:30:04.378Z,5.70
2022-08-05T14:35:10.787Z,5.13
2022-08-05T14:40:16.629Z,5.40
2022-08-05T14:45:21.794Z,5.85
2022-08-05T14:50:26.135Z,6.28
2022-08-05T14:55:39.407Z,5.30
2022-08-05T15:00:58.619Z,4.80
2022-08-05T15:06:13.419Z,4.97
2022-08-05T15:11:19.126Z,5.13
2022-08-05T15:16:22.677Z,5.72
2022-08-05T15:21:25.386Z,5.07
2022-08-05T15:26:33.034Z,5.30
2022-08-05T15:31:36.431Z,4.95
2022-08-05T15:36:40.082Z,5.53
2022-08-05T15:41:57.930Z,5.38
2022-08-05T15:47:03.138Z,5.18
2022-08-05T15:52:16.180Z,5.30
2022-08-05T15:57:20.146Z,5.15
2022-08-05T16:02:25.640Z,5.43
2022-08-05T16:07:30.285Z,5.38
2022-08-05T16:12:32.846Z,6.05
2022-08-05T16:17:36.301Z,5.35
2022-08-05T16:22:39.288Z,6.43
2022-08-05T16:27:59.626Z,5.75
2022-08-05T16:33:04.728Z,5.60
2022-08-05T16:38:23.859Z,6.43
2022-08-05T16:43:30.329Z,5.65
2022-08-05T16:48:35.518Z,5.80
2022-08-05T16:54:05.331Z,5.68
2022-08-05T16:59:08.809Z,6.03
2022-08-05T17:04:12.757Z,5.78
2022-08-05T17:09:17.796Z,6.07
2022-08-05T17:14:34.307Z,5.90
2022-08-05T17:19:43.608Z,6.00
2022-08-05T17:24:57.257Z,5.85
2022-08-05T17:30:02.913Z,5.75
2022-08-05T17:35:08.811Z,6.13
2022-08-05T17:40:18.091Z,6.18
2022-08-05T17:45:29.717Z,6.50
2022-08-05T17:50:42.263Z,6.07
2022-08-05T17:55:45.210Z,6.18
2022-08-05T18:00:50.996Z,6.82
2022-08-05T18:05:54.790Z,6.57
2022-08-05T18:11:04.344Z,5.90
2022-08-05T18:16:09.417Z,6.15
2022-08-05T18:21:21.267Z,5.75
2022-08-05T18:26:29.490Z,6.70
2022-08-05T18:31:35.543Z,6.15
2022-08-05T18:36:39.442Z,6.25
2022-08-05T18:41:55.605Z,6.47
2022-08-05T18:47:04.158Z,6.43
2022-08-05T18:52:33.026Z,6.93
2022-08-05T18:57:49.881Z,6.00
2022-08-05T19:02:58.282Z,6.50
2022-08-05T19:08:15.823Z,6.53
2022-08-05T19:13:22.051Z,6.25
2022-08-05T19:18:25.592Z,6.45
2022-08-05T19:24:07.068Z,6.88
2022-08-05T19:28:57.041Z,6.75
2022-08-05T19:34:00.546Z,6.85
2022-08-05T19:39:05.908Z,6.55
2022-08-05T19:44:13.244Z,6.72
2022-08-05T19:49:17.809Z,6.75
2022-08-05T19:54:25.474Z,6.53
2022-08-05T19:59:56.102Z,5.97
2022-08-05T20:04:58.733Z,7.20
2022-08-05T20:10:04.871Z,7.18
2022-08-05T20:15:15.385Z,6.88
2022-08-05T20:20:26.415Z,6.65
2022-08-05T20:25:33.846Z,6.78
2022-08-05T20:30:45.293Z,7.13
2022-08-05T20:35:50.594Z,6.82
2022-08-05T20:40:53.913Z,6.97
2022-08-05T20:45:58.027Z,6.28
2022-08-05T20:51:07.152Z,6.85
2022-08-05T20:56:11.962Z,6.32
2022-08-05T21:01:14.778Z,6.60
2022-08-05T21:06:27.847Z,7.18
2022-08-05T21:12:07.532Z,7.10
2022-08-05T21:16:54.431Z,7.10
2022-08-05T21:21:56.902Z,6.88
2022-08-05T21:27:00.240Z,7.45
2022-08-05T21:32:03.947Z,6.53
2022-08-05T21:37:07.712Z,6.65
2022-08-05T21:42:29.112Z,6.47
2022-08-05T21:47:57.051Z,7.30
2022-08-05T21:52:58.957Z,7.85
2022-08-05T21:58:10.525Z,6.95
2022-08-05T22:03:14.771Z,6.68
2022-08-05T22:08:22.043Z,7.38
2022-08-05T22:14:19.586Z,7.25
2022-08-05T22:18:50.100Z,6.75
2022-08-05T22:24:39.311Z,6.53
2022-08-05T22:29:35.252Z,6.57
2022-08-05T22:34:38.113Z,6.32
2022-08-05T22:39:40.605Z,7.00
2022-08-05T22:44:48.365Z,6.85
2022-08-05T22:50:19.893Z,6.80
2022-08-05T22:55:23.514Z,6.70
2022-08-05T23:00:26.952Z,6.93
2022-08-05T23:05:30.067Z,7.10
2022-08-05T23:10:38.594Z,6.50
2022-08-05T23:15:42.408Z,7.07
2022-08-05T23:20:45.563Z,6.20
2022-08-05T23:25:54.998Z,6.18
2022-08-05T23:31:16.411Z,6.60
2022-08-05T23:36:19.327Z,7.20
2022-08-05T23:41:21.868Z,6.47
2022-08-05T23:46:25.129Z,7.20
2022-08-05T23:51:53.506Z,7.68
2022-08-05T23:57:04.190Z,6.53
